Time;durP1;ratioP1;P1;durP2;ratioP2;P2;SDS_P1;SDS_P2;PMS_P1;PMS_P2;Temp;Humidity;BMP_temperature;BMP_pressure;BME280_temperature;BME280_humidity;BME280_pressure;Samples;Min_cycle;Max_cycle;Signal;HPM_P1;HPM_P2
2021/06/09 00:00:25;;;;;;;34.75;27.67;;;;;;;15.64;100.00;100806.16;2043874;29;20044;-59
2021/06/09 00:01:27;;;;;;;34.73;27.87;;;;;;;15.66;100.00;100804.31;2042739;28;21798;-59
2021/06/09 00:02:27;;;;;;;34.08;27.20;;;;;;;15.72;100.00;100809.34;2050319;28;20031;-60
2021/06/09 00:03:32;;;;;;;38.60;27.23;;;;;;;15.73;100.00;100805.75;2050244;28;20106;-60
2021/06/09 00:04:33;;;;;;;33.47;27.05;;;;;;;15.71;100.00;100807.63;2035458;29;20093;-60
2021/06/09 00:05:33;;;;;;;35.10;27.97;;;;;;;15.72;100.00;100797.03;2043923;29;20626;-60
2021/06/09 00:06:34;;;;;;;36.43;27.97;;;;;;;15.71;100.00;100805.00;2042827;29;20813;-60
2021/06/09 00:07:34;;;;;;;35.80;28.77;;;;;;;15.71;100.00;100805.84;2043159;29;20109;-60
2021/06/09 00:08:35;;;;;;;33.60;28.37;;;;;;;15.71;100.00;100803.22;2043834;29;20642;-60
2021/06/09 00:09:35;;;;;;;36.30;29.00;;;;;;;15.69;100.00;100802.41;2043695;28;20054;-60
2021/06/09 00:10:35;;;;;;;41.13;29.57;;;;;;;15.71;100.00;100802.38;2044113;29;20114;-60
2021/06/09 00:11:36;;;;;;;36.47;27.90;;;;;;;15.70;100.00;100795.41;2042138;29;20484;-60
2021/06/09 00:12:37;;;;;;;37.15;29.17;;;;;;;15.71;100.00;100797.94;2044201;29;20054;-60
2021/06/09 00:13:37;;;;;;;40.80;29.63;;;;;;;15.71;100.00;100803.22;2043021;28;20122;-60
2021/06/09 00:14:37;;;;;;;39.17;29.70;;;;;;;15.71;100.00;100797.94;2043722;28;20122;-60
2021/06/09 00:15:38;;;;;;;37.50;29.43;;;;;;;15.72;100.00;100804.09;2044327;29;20400;-59
2021/06/09 00:16:38;;;;;;;39.37;30.23;;;;;;;15.72;100.00;100798.81;2042952;28;20023;-60
2021/06/09 00:17:39;;;;;;;40.60;31.27;;;;;;;15.71;100.00;100805.00;2044125;29;20023;-60
2021/06/09 00:18:41;;;;;;;40.42;30.65;;;;;;;15.71;100.00;100797.94;2044480;28;20145;-60
2021/06/09 00:19:41;;;;;;;40.95;30.90;;;;;;;15.72;100.00;100804.09;2043899;29;20043;-60
2021/06/09 00:20:42;;;;;;;43.87;32.93;;;;;;;15.75;100.00;100808.34;2044634;29;20043;-60
2021/06/09 00:21:47;;;;;;;52.40;35.00;;;;;;;15.77;100.00;100807.34;2043340;29;20299;-60
2021/06/09 00:22:48;;;;;;;55.63;37.40;;;;;;;15.78;100.00;100805.56;2044702;28;20031;-60
2021/06/09 00:23:48;;;;;;;48.97;34.55;;;;;;;15.79;100.00;100809.91;2044372;29;20031;-59
2021/06/09 00:24:48;;;;;;;47.17;33.38;;;;;;;15.79;100.00;100809.91;2044658;28;20042;-59
2021/06/09 00:25:51;;;;;;;44.43;31.40;;;;;;;15.79;100.00;100809.91;2044184;29;20058;-59
2021/06/09 00:26:52;;;;;;;45.25;31.50;;;;;;;15.71;100.00;100803.22;2044717;28;20029;-59
2021/06/09 00:27:54;;;;;;;42.33;32.05;;;;;;;15.72;100.00;100809.34;2044011;29;20027;-59
2021/06/09 00:28:55;;;;;;;40.50;30.30;;;;;;;15.70;100.00;100803.28;2044296;29;20039;-59
2021/06/09 00:29:55;;;;;;;46.13;31.38;;;;;;;15.68;100.00;100805.13;2044341;29;20468;-59
2021/06/09 00:30:57;;;;;;;53.40;33.63;;;;;;;15.67;100.00;100806.03;2045053;28;20049;-59
2021/06/09 00:31:58;;;;;;;53.38;34.25;;;;;;;15.68;100.00;100805.13;2045903;28;20056;-59
2021/06/09 00:33:03;;;;;;;52.17;34.70;;;;;;;15.69;100.00;100806.81;2046036;29;20098;-59
2021/06/09 00:34:03;;;;;;;46.50;33.47;;;;;;;15.69;100.00;100805.03;2044160;28;20031;-59
2021/06/09 00:35:05;;;;;;;51.00;34.77;;;;;;;15.68;100.00;100805.13;2045622;29;20034;-59
2021/06/09 00:36:05;;;;;;;48.15;34.47;;;;;;;15.69;100.00;100805.03;2045507;29;20539;-59
2021/06/09 00:37:06;;;;;;;48.07;33.20;;;;;;;15.68;100.00;100802.47;2046113;29;20027;-58
2021/06/09 00:38:06;;;;;;;48.87;33.43;;;;;;;15.66;100.00;100810.44;2045615;29;20503;-58
2021/06/09 00:39:07;;;;;;;46.15;34.08;;;;;;;15.64;100.00;100807.03;2046050;28;20122;-58
2021/06/09 00:40:10;;;;;;;54.08;35.33;;;;;;;15.66;100.00;100806.94;2044000;29;21908;-59
2021/06/09 00:41:10;;;;;;;49.08;34.45;;;;;;;15.66;100.00;100809.56;2046106;29;20130;-59
2021/06/09 00:42:11;;;;;;;53.93;36.83;;;;;;;15.68;100.00;100813.00;2045835;29;20605;-59
2021/06/09 00:43:13;;;;;;;51.63;35.95;;;;;;;15.66;100.00;100810.44;2045181;29;20042;-58
2021/06/09 00:44:14;;;;;;;56.90;35.80;;;;;;;15.67;100.00;100813.91;2043066;29;20042;-58
2021/06/09 00:45:15;;;;;;;51.53;35.42;;;;;;;15.67;100.00;100808.66;2044297;29;20035;-58
2021/06/09 00:46:15;;;;;;;48.83;34.93;;;;;;;15.68;100.00;100811.22;2045912;29;20027;-58
2021/06/09 00:47:22;;;;;;;49.00;34.20;;;;;;;15.67;100.00;100811.28;2045542;29;20396;-58
2021/06/09 00:48:26;;;;;;;47.42;33.40;;;;;;;15.67;100.00;100809.53;2046034;29;20031;-58
2021/06/09 00:49:26;;;;;;;56.25;36.40;;;;;;;15.67;100.00;100806.91;2043872;29;20027;-58
2021/06/09 00:50:26;;;;;;;54.77;36.43;;;;;;;15.68;100.00;100813.00;2045664;29;20035;-58
2021/06/09 00:51:27;;;;;;;65.93;39.97;;;;;;;15.68;100.00;100815.63;2045512;28;20622;-58
2021/06/09 00:52:29;;;;;;;55.22;36.45;;;;;;;15.70;100.00;100814.63;2045219;28;20030;-58
2021/06/09 00:53:35;;;;;;;49.35;33.75;;;;;;;15.70;100.00;100816.41;2045167;29;20035;-59
2021/06/09 00:54:35;;;;;;;56.60;36.47;;;;;;;15.68;100.00;100818.25;2045595;29;20065;-59
2021/06/09 00:55:35;;;;;;;61.90;38.00;;;;;;;15.71;100.00;100818.97;2045752;29;20508;-58
2021/06/09 00:56:38;;;;;;;59.77;38.20;;;;;;;15.69;100.00;100814.72;2045280;29;20027;-58
2021/06/09 00:57:39;;;;;;;58.13;38.28;;;;;;;15.68;100.00;100818.25;2044588;29;20023;-58
2021/06/09 00:58:43;;;;;;;60.05;37.28;;;;;;;15.66;100.00;100818.31;2045913;29;20074;-58
2021/06/09 00:59:43;;;;;;;61.58;39.60;;;;;;;15.68;100.00;100823.50;2045430;29;20035;-58
2021/06/09 01:00:44;;;;;;;62.78;39.25;;;;;;;15.69;100.00;100825.22;2045546;29;20042;-58
2021/06/09 01:01:45;;;;;;;58.95;37.13;;;;;;;15.68;100.00;100828.75;2044617;29;20555;-59
2021/06/09 01:02:45;;;;;;;55.03;37.17;;;;;;;15.66;100.00;100828.84;2045742;29;20729;-59
2021/06/09 01:03:46;;;;;;;59.90;37.17;;;;;;;15.65;100.00;100823.63;2045917;28;20030;-58
2021/06/09 01:04:46;;;;;;;54.97;36.85;;;;;;;15.65;100.00;100824.50;2045261;29;20102;-59
2021/06/09 01:05:46;;;;;;;55.13;36.10;;;;;;;15.65;100.00;100834.13;2045966;29;20843;-58
2021/06/09 01:06:47;;;;;;;55.17;36.40;;;;;;;15.64;100.00;100827.16;2045014;28;20030;-59
2021/06/09 01:07:47;;;;;;;55.73;36.20;;;;;;;15.64;100.00;100835.06;2045508;29;20031;-59
2021/06/09 01:08:50;;;;;;;53.73;36.27;;;;;;;15.64;100.00;100827.16;2045670;29;20174;-58
2021/06/09 01:09:50;;;;;;;53.08;35.17;;;;;;;15.63;100.00;100825.44;2045116;29;20107;-59
2021/06/09 01:10:52;;;;;;;61.77;37.10;;;;;;;15.64;100.00;100827.16;2046566;28;20485;-59
2021/06/09 01:11:53;;;;;;;52.08;35.00;;;;;;;15.61;100.00;100822.06;2046484;29;20038;-59
2021/06/09 01:12:56;;;;;;;51.55;33.78;;;;;;;15.60;100.00;100826.44;2046648;28;20055;-59
2021/06/09 01:13:56;;;;;;;52.30;33.65;;;;;;;15.59;100.00;100821.25;2044101;29;20041;-58
2021/06/09 01:14:56;;;;;;;49.70;35.17;;;;;;;15.59;100.00;100826.53;2046142;29;20031;-58
2021/06/09 01:15:58;;;;;;;52.47;34.60;;;;;;;15.57;100.00;100827.44;2044747;29;20026;-58
2021/06/09 01:16:58;;;;;;;54.67;36.08;;;;;;;15.57;100.00;100822.19;2044352;29;20039;-60
2021/06/09 01:17:59;;;;;;;48.58;34.63;;;;;;;15.60;100.00;100817.72;2044176;29;20118;-59
2021/06/09 01:19:00;;;;;;;51.45;34.92;;;;;;;15.61;100.00;100816.81;2043511;29;20809;-58
2021/06/09 01:20:00;;;;;;;47.80;32.47;;;;;;;15.60;100.00;100815.09;2043964;28;20051;-59
2021/06/09 01:21:01;;;;;;;50.53;34.20;;;;;;;15.59;100.00;100816.84;2045536;29;20067;-59
2021/06/09 01:22:01;;;;;;;45.22;32.78;;;;;;;15.61;100.00;100814.19;2044607;28;20039;-59
2021/06/09 01:23:03;;;;;;;52.67;35.17;;;;;;;15.57;100.00;100818.72;2046644;28;20039;-59
2021/06/09 01:24:04;;;;;;;50.13;34.20;;;;;;;15.57;100.00;100810.84;2043218;29;20472;-58
2021/06/09 01:25:05;;;;;;;53.42;35.50;;;;;;;15.57;100.00;100811.66;2044393;29;20063;-59
2021/06/09 01:26:08;;;;;;;56.90;35.75;;;;;;;15.59;100.00;100810.75;2045504;28;20597;-58
2021/06/09 01:27:08;;;;;;;61.20;37.80;;;;;;;15.61;100.00;100814.19;2045453;28;20031;-59
2021/06/09 01:28:09;;;;;;;55.83;37.83;;;;;;;15.62;100.00;100813.25;2042924;28;20070;-58
2021/06/09 01:29:09;;;;;;;58.90;38.93;;;;;;;15.63;100.00;100809.69;2045858;29;20286;-58
2021/06/09 01:30:11;;;;;;;59.58;37.75;;;;;;;15.63;100.00;100814.94;2045330;28;20027;-59
2021/06/09 01:31:12;;;;;;;54.47;36.45;;;;;;;15.64;100.00;100811.41;2046433;28;20035;-59
2021/06/09 01:32:13;;;;;;;50.40;35.83;;;;;;;15.62;100.00;100811.47;2045291;28;20078;-59
2021/06/09 01:33:15;;;;;;;52.17;35.50;;;;;;;15.62;100.00;100813.25;2045415;29;20552;-59
2021/06/09 01:34:15;;;;;;;53.58;36.97;;;;;;;15.62;100.00;100813.25;2045549;28;20034;-59
2021/06/09 01:35:15;;;;;;;50.70;34.83;;;;;;;15.60;100.00;100817.72;2043680;28;20049;-59
2021/06/09 01:36:16;;;;;;;51.93;35.07;;;;;;;15.61;100.00;100819.44;2046344;29;20038;-59
2021/06/09 01:37:18;;;;;;;54.23;36.83;;;;;;;15.61;100.00;100816.81;2046336;29;20030;-59
2021/06/09 01:38:19;;;;;;;52.28;35.85;;;;;;;15.61;100.00;100819.44;2046587;28;20027;-59
2021/06/09 01:39:19;;;;;;;;;;;;;;;15.59;100.00;100813.38;2046977;29;20031;-59
2021/06/09 01:40:23;;;;;;;55.22;35.20;;;;;;;15.59;100.00;100818.63;2046320;29;19945;-57
2021/06/09 01:41:24;;;;;;;60.58;36.47;;;;;;;15.60;100.00;100815.94;2046291;28;20663;-59
2021/06/09 01:42:29;;;;;;;51.33;35.53;;;;;;;15.57;100.00;100816.91;2045227;28;20504;-59
2021/06/09 01:43:30;;;;;;;54.47;36.15;;;;;;;15.57;100.00;100819.56;2044467;29;20512;-59
2021/06/09 01:44:30;;;;;;;;;;;;;;;15.56;100.00;100823.09;2045504;29;20031;-59
2021/06/09 01:45:33;;;;;;;63.95;38.95;;;;;;;15.56;100.00;100814.38;2052474;28;19918;-59
2021/06/09 01:46:33;;;;;;;56.13;37.38;;;;;;;15.57;100.00;100827.44;2052487;28;20747;-59
2021/06/09 01:47:34;;;;;;;57.27;38.40;;;;;;;15.57;100.00;100823.97;2045101;29;20035;-59
2021/06/09 01:48:34;;;;;;;67.35;39.92;;;;;;;15.60;100.00;100820.34;2045776;29;20579;-59
2021/06/09 01:49:34;;;;;;;59.43;39.20;;;;;;;15.57;100.00;100822.19;2045124;29;20050;-59
2021/06/09 01:50:37;;;;;;;50.80;35.93;;;;;;;15.57;100.00;100818.72;2045488;28;20743;-59
2021/06/09 01:51:38;;;;;;;52.42;36.15;;;;;;;15.56;100.00;100824.88;2044707;29;20032;-59
2021/06/09 01:52:39;;;;;;;54.25;35.30;;;;;;;15.55;100.00;100820.53;2045469;29;20027;-59
2021/06/09 01:53:40;;;;;;;49.63;34.58;;;;;;;15.55;100.00;100821.38;2044886;29;20118;-59
2021/06/09 01:54:40;;;;;;;49.90;35.53;;;;;;;15.52;100.00;100816.28;2046252;29;20493;-59
2021/06/09 01:55:41;;;;;;;59.17;38.33;;;;;;;15.53;100.00;100815.31;2044864;29;20023;-59
2021/06/09 01:56:41;;;;;;;56.28;38.60;;;;;;;15.53;100.00;100815.31;2045427;29;20599;-59
2021/06/09 01:57:42;;;;;;;60.67;38.85;;;;;;;15.51;100.00;100821.56;2045225;29;20039;-60
2021/06/09 01:58:43;;;;;;;57.53;37.03;;;;;;;15.51;100.00;100817.19;2045887;28;20075;-59
2021/06/09 01:59:44;;;;;;;60.88;38.45;;;;;;;15.53;100.00;100815.31;2045285;29;20085;-59
2021/06/09 02:00:46;;;;;;;59.58;36.47;;;;;;;15.53;100.00;100814.50;2045618;28;20468;-59
2021/06/09 02:01:49;;;;;;;53.92;36.95;;;;;;;15.51;100.00;100811.94;2044545;29;20038;-59
2021/06/09 02:02:49;;;;;;;58.70;38.33;;;;;;;15.53;100.00;100819.75;2044977;29;20432;-59
2021/06/09 02:03:50;;;;;;;57.77;36.57;;;;;;;15.51;100.00;100817.19;2045281;29;20106;-59
2021/06/09 02:04:50;;;;;;;52.80;35.10;;;;;;;15.49;100.00;100808.50;2048632;28;20640;-58
2021/06/09 02:05:50;;;;;;;52.47;35.13;;;;;;;15.49;100.00;100824.28;2048859;28;20273;-58
2021/06/09 02:06:52;;;;;;;54.50;35.40;;;;;;;15.48;100.00;100813.84;2044837;28;20050;-59
2021/06/09 02:07:55;;;;;;;53.75;34.53;;;;;;;15.46;100.00;100819.13;2045308;28;20062;-59
2021/06/09 02:08:55;;;;;;;49.85;33.88;;;;;;;15.45;100.00;100809.53;2044659;29;20027;-59
2021/06/09 02:09:56;;;;;;;55.00;35.90;;;;;;;15.45;100.00;100813.94;2045334;29;20027;-59
2021/06/09 02:10:58;;;;;;;57.05;36.10;;;;;;;15.47;100.00;100814.75;2044352;29;20027;-58
2021/06/09 02:12:00;;;;;;;53.72;34.67;;;;;;;15.47;100.00;100814.75;2044139;29;20023;-58
2021/06/09 02:13:05;;;;;;;;;;;;;;;15.47;100.00;100812.97;2045255;28;20023;-59
2021/06/09 02:14:06;;;;;;;46.17;31.35;;;;;;;15.46;100.00;100815.66;2044557;29;20404;-59
2021/06/09 02:15:06;;;;;;;58.70;34.55;;;;;;;15.47;100.00;100814.75;2045977;29;20043;-59
2021/06/09 02:16:07;;;;;;;54.33;33.65;;;;;;;15.45;100.00;100814.78;2042515;29;20034;-59
2021/06/09 02:17:09;;;;;;;49.27;33.17;;;;;;;15.45;100.00;100811.31;2045408;29;20034;-59
2021/06/09 02:18:16;;;;;;;53.05;35.33;;;;;;;15.45;100.00;100812.16;2045075;29;20026;-59
2021/06/09 02:19:17;;;;;;;52.60;34.35;;;;;;;15.47;100.00;100810.34;2043681;29;20023;-59
2021/06/09 02:20:20;;;;;;;52.75;34.33;;;;;;;15.46;100.00;100813.03;2044995;28;20038;-59
2021/06/09 02:21:20;;;;;;;54.22;33.80;;;;;;;15.45;100.00;100812.16;2044231;29;20035;-59
2021/06/09 02:22:20;;;;;;;50.00;33.27;;;;;;;15.46;100.00;100813.88;2044732;29;20031;-59
2021/06/09 02:23:24;;;;;;;47.27;34.03;;;;;;;15.46;100.00;100810.41;2044694;29;20027;-59
2021/06/09 02:24:27;;;;;;;54.08;35.80;;;;;;;15.46;100.00;100805.16;2045336;28;20031;-60
2021/06/09 02:25:27;;;;;;;51.45;35.03;;;;;;;15.46;100.00;100808.63;2043311;29;20057;-59
2021/06/09 02:26:28;;;;;;;50.13;34.55;;;;;;;15.44;100.00;100805.19;2044878;29;20038;-59
2021/06/09 02:27:29;;;;;;;46.85;33.35;;;;;;;15.41;100.00;100802.72;2044855;29;20038;-59
2021/06/09 02:28:32;;;;;;;51.43;34.30;;;;;;;15.43;100.00;100802.66;2045091;28;20035;-59
2021/06/09 02:29:32;;;;;;;51.20;36.17;;;;;;;15.41;100.00;100800.94;2051798;28;20035;-60
2021/06/09 02:30:33;;;;;;;58.03;34.53;;;;;;;15.42;100.00;100807.06;2049828;28;20035;-59
2021/06/09 02:31:35;;;;;;;55.55;35.67;;;;;;;15.40;100.00;100806.25;2044387;28;20650;-59
2021/06/09 02:32:36;;;;;;;52.35;34.15;;;;;;;15.42;100.00;100804.44;2045577;28;20023;-59
2021/06/09 02:33:36;;;;;;;48.33;33.95;;;;;;;15.40;100.00;100803.63;2045658;29;20030;-59
2021/06/09 02:34:37;;;;;;;52.90;35.37;;;;;;;15.37;100.00;100806.38;2044607;29;20508;-59
2021/06/09 02:35:39;;;;;;;52.17;34.10;;;;;;;15.35;100.00;100806.44;2044624;28;20027;-59
2021/06/09 02:36:41;;;;;;;51.85;34.10;;;;;;;15.32;100.00;100803.94;2045604;29;20038;-59
2021/06/09 02:37:42;;;;;;;45.08;33.55;;;;;;;15.31;100.00;100804.84;2044162;28;20023;-59
2021/06/09 02:38:43;;;;;;;51.22;34.42;;;;;;;15.31;100.00;100807.47;2044058;29;20023;-59
2021/06/09 02:39:43;;;;;;;50.03;33.97;;;;;;;15.31;100.00;100809.25;2044678;28;20027;-58
2021/06/09 02:40:46;;;;;;;50.13;33.43;;;;;;;15.30;100.00;100804.91;2043691;29;20042;-59
2021/06/09 02:41:47;;;;;;;51.10;34.45;;;;;;;15.25;100.00;100805.94;2042928;29;20035;-59
2021/06/09 02:42:49;;;;;;;53.33;33.95;;;;;;;15.25;100.00;100803.31;2045370;29;20030;-59
2021/06/09 02:43:49;;;;;;;;;;;;;;;15.24;100.00;100803.41;2045344;29;20125;-59
2021/06/09 02:44:49;;;;;;;47.15;33.33;;;;;;;15.26;100.00;100804.19;2044994;29;19918;-59
2021/06/09 02:45:53;;;;;;;53.93;35.63;;;;;;;15.24;100.00;100809.50;2045303;29;20039;-59
2021/06/09 02:46:57;;;;;;;49.13;33.78;;;;;;;15.23;100.00;100813.03;2044051;29;20034;-59
2021/06/09 02:48:09;;;;;;;55.28;34.50;;;;;;;15.23;100.00;100812.19;2044039;29;20027;-59
2021/06/09 02:49:12;;;;;;;53.70;35.88;;;;;;;15.21;100.00;100807.00;2040941;29;20042;-59
2021/06/09 02:50:13;;;;;;;53.58;35.42;;;;;;;15.21;100.00;100807.00;2044540;29;20035;-59
2021/06/09 02:51:17;;;;;;;50.35;35.55;;;;;;;15.20;100.00;100802.66;2046680;29;20031;-59
2021/06/09 02:52:25;;;;;;;52.83;35.33;;;;;;;15.21;100.00;100806.13;2043417;29;20027;-59
2021/06/09 02:54:11;;;;;;;54.10;35.85;;;;;;;15.19;100.00;100810.59;2047899;28;20035;-59
2021/06/09 02:55:26;;;;;;;54.72;35.90;;;;;;;15.21;100.00;100812.25;2040258;29;20051;-59
2021/06/09 02:56:52;;;;;;;54.03;35.55;;;;;;;15.19;100.00;100815.84;2041606;28;20031;-59
2021/06/09 02:58:25;;;;;;;58.88;36.00;;;;;;;15.18;100.00;100808.91;2039577;29;20398;-59
2021/06/09 02:59:56;;;;;;;54.45;35.28;;;;;;;15.16;100.00;100808.94;2045651;29;20067;-59
2021/06/09 03:01:10;;;;;;;54.10;36.88;;;;;;;15.16;100.00;100803.69;2043370;29;20027;-59
2021/06/09 03:02:16;;;;;;;73.53;38.55;;;;;;;15.14;100.00;100810.78;2042568;29;20027;-59
2021/06/09 03:03:41;;;;;;;59.55;36.38;;;;;;;15.13;100.00;100797.72;2043843;29;20058;-59
2021/06/09 03:04:49;;;;;;;63.63;38.53;;;;;;;15.10;100.00;100807.41;2044273;29;20035;-59
2021/06/09 03:06:03;;;;;;;62.97;38.00;;;;;;;15.11;100.00;100805.66;2043104;29;20039;-59
2021/06/09 03:07:35;;;;;;;68.32;39.88;;;;;;;15.13;100.00;100805.59;2044911;29;20581;-59
2021/06/09 03:08:47;;;;;;;64.38;39.22;;;;;;;15.12;100.00;100807.38;2044684;29;20019;-59
2021/06/09 03:10:06;;;;;;;58.78;37.65;;;;;;;15.12;100.00;100804.75;2043363;29;20062;-59
2021/06/09 03:11:31;;;;;;;59.03;38.85;;;;;;;15.11;100.00;100803.03;2043987;29;20031;-59
2021/06/09 03:13:03;;;;;;;61.97;39.90;;;;;;;15.13;100.00;100803.84;2044140;29;20027;-59
2021/06/09 03:15:49;;;;;;;67.55;39.88;;;;;;;15.13;100.00;100800.34;2042757;29;20067;-59
2021/06/09 03:16:54;;;;;;;71.07;40.80;;;;;;;15.15;100.00;100803.75;2043319;29;20139;-59
2021/06/09 03:18:05;;;;;;;68.30;40.40;;;;;;;15.17;100.00;100804.56;2044412;28;20865;-59
2021/06/09 03:19:09;;;;;;;70.72;39.95;;;;;;;15.15;100.00;100798.50;2044438;29;20063;-59
2021/06/09 03:20:18;;;;;;;63.60;39.25;;;;;;;15.15;100.00;100799.34;2043380;29;20027;-59
2021/06/09 03:21:45;;;;;;;67.15;39.90;;;;;;;15.14;100.00;100795.00;2043883;28;20627;-59
2021/06/09 03:23:12;;;;;;;60.78;38.22;;;;;;;15.13;100.00;100795.09;2043851;29;20110;-59
2021/06/09 03:24:35;;;;;;;58.25;37.50;;;;;;;15.12;100.00;100793.38;2043521;29;20031;-59
2021/06/09 03:25:49;;;;;;;63.95;38.20;;;;;;;15.12;100.00;100802.13;2043535;29;20031;-59
2021/06/09 03:27:13;;;;;;;64.93;38.92;;;;;;;15.14;100.00;100795.00;2044120;29;20050;-59
2021/06/09 03:28:20;;;;;;;63.72;38.53;;;;;;;15.13;100.00;100790.72;2043224;29;20035;-59
2021/06/09 03:29:36;;;;;;;66.47;40.33;;;;;;;15.13;100.00;100789.84;2044999;29;20050;-59
2021/06/09 03:30:39;;;;;;;73.80;41.45;;;;;;;15.12;100.00;100789.00;2044372;29;20026;-59
2021/06/09 03:31:46;;;;;;;67.35;40.72;;;;;;;15.12;100.00;100786.38;2044070;29;20106;-59
2021/06/09 03:33:00;;;;;;;67.63;40.13;;;;;;;15.15;100.00;100790.63;2043187;29;20408;-59
2021/06/09 03:34:01;;;;;;;68.72;40.42;;;;;;;15.17;100.00;100789.66;2045058;29;20047;-59
2021/06/09 03:35:28;;;;;;;68.63;40.80;;;;;;;15.19;100.00;100790.44;2044671;28;20100;-59
2021/06/09 03:36:35;;;;;;;64.68;40.00;;;;;;;15.24;100.00;100783.22;2043633;29;20039;-59
2021/06/09 03:37:40;;;;;;;63.25;40.92;;;;;;;15.29;100.00;100785.66;2045185;28;20031;-59
2021/06/09 03:39:04;;;;;;;60.08;39.33;;;;;;;15.33;100.00;100786.44;2052305;28;20050;-59
2021/06/09 03:40:09;;;;;;;69.53;40.00;;;;;;;15.39;100.00;100788.78;2049716;28;20042;-59
2021/06/09 03:41:12;;;;;;;59.97;39.38;;;;;;;15.45;100.00;100791.16;2043574;28;20135;-59
2021/06/09 03:42:19;;;;;;;53.67;36.70;;;;;;;15.46;100.00;100790.25;2038598;29;20595;-59
2021/06/09 03:43:21;;;;;;;57.38;36.67;;;;;;;15.52;100.00;100792.63;2038582;29;20031;-59
2021/06/09 03:44:30;;;;;;;56.70;35.85;;;;;;;15.57;100.00;100793.28;2037659;29;20054;-59
2021/06/09 03:45:34;;;;;;;51.30;35.13;;;;;;;15.64;100.00;100798.25;2039041;29;20488;-59
2021/06/09 03:46:38;;;;;;;49.22;35.38;;;;;;;15.70;100.00;100796.25;2044242;29;20046;-59
2021/06/09 03:47:40;;;;;;;46.65;33.95;;;;;;;15.71;100.00;100797.94;2047461;29;20031;-59
2021/06/09 03:48:43;;;;;;;44.15;32.85;;;;;;;15.79;100.00;100802.03;2047074;29;20038;-59
2021/06/09 03:49:44;;;;;;;44.28;32.92;;;;;;;15.85;100.00;100801.81;2046385;29;20069;-59
2021/06/09 03:50:47;;;;;;;44.78;33.20;;;;;;;15.95;100.00;100808.38;2047280;29;20716;-59
2021/06/09 03:51:49;;;;;;;40.17;32.60;;;;;;;15.94;100.00;100803.16;2046875;29;20034;-59
2021/06/09 03:52:50;;;;;;;;;;;;;;;16.02;100.00;100801.94;2047658;29;20055;-59
2021/06/09 03:53:53;;;;;;;38.05;30.73;;;;;;;16.06;100.00;100807.06;2046857;29;19954;-59
2021/06/09 03:54:55;;;;;;;35.22;29.55;;;;;;;16.08;100.00;100806.06;2047362;29;20027;-59
2021/06/09 03:56:04;;;;;;;38.10;30.40;;;;;;;16.33;100.00;100805.84;2047363;29;20034;-59
2021/06/09 03:57:06;;;;;;;36.05;29.42;;;;;;;16.66;100.00;100804.38;2047278;28;20043;-59
2021/06/09 03:58:13;;;;;;;37.75;29.88;;;;;;;16.99;100.00;100802.91;2046351;29;20032;-59
2021/06/09 03:59:14;;;;;;;31.45;27.73;;;;;;;17.17;100.00;100796.75;2046547;29;20106;-59
2021/06/09 04:00:15;;;;;;;28.83;25.75;;;;;;;17.44;100.00;100798.94;2046649;29;20054;-59
2021/06/09 04:01:17;;;;;;;;;;;;;;;17.55;100.00;100801.06;2047840;29;20031;-59
2021/06/09 04:02:21;;;;;;;27.38;24.35;;;;;;;17.96;100.00;100808.69;2046707;28;19981;-59
2021/06/09 04:03:23;;;;;;;28.40;23.83;;;;;;;18.20;100.00;100803.94;2046451;29;20038;-59
2021/06/09 04:04:26;;;;;;;23.65;21.33;;;;;;;18.36;100.00;100805.75;2046592;29;20118;-59
2021/06/09 04:05:27;;;;;;;24.23;21.73;;;;;;;18.46;99.07;100804.31;2045874;28;20043;-59
2021/06/09 04:06:30;;;;;;;23.38;20.40;;;;;;;18.40;98.57;100806.41;2046872;28;20801;-59
2021/06/09 04:07:30;;;;;;;22.65;20.45;;;;;;;18.37;98.85;100803.97;2047681;29;20487;-59
2021/06/09 04:08:32;;;;;;;21.85;19.75;;;;;;;18.26;98.09;100808.03;2047688;29;20032;-59
2021/06/09 04:09:35;;;;;;;21.73;19.58;;;;;;;18.14;98.47;100809.50;2046894;29;20042;-59
2021/06/09 04:10:36;;;;;;;22.35;18.73;;;;;;;18.07;98.65;100812.56;2047081;29;20035;-59
2021/06/09 04:11:37;;;;;;;;;;;;;;;17.96;99.38;100816.59;2047847;28;20027;-59
2021/06/09 04:12:39;;;;;;;22.67;18.63;;;;;;;17.92;98.83;100811.53;2047190;29;19985;-59
2021/06/09 04:13:40;;;;;;;20.88;18.80;;;;;;;17.77;99.34;100814.00;2047369;28;20026;-59
2021/06/09 04:14:46;;;;;;;21.42;18.60;;;;;;;17.78;99.49;100809.59;2047548;29;20117;-59
2021/06/09 04:15:49;;;;;;;19.67;17.80;;;;;;;17.83;99.33;100810.22;2047280;29;20027;-59
2021/06/09 04:16:52;;;;;;;20.77;18.67;;;;;;;17.58;99.61;100814.09;2047348;29;20033;-59
2021/06/09 04:17:54;;;;;;;19.83;17.85;;;;;;;17.78;99.14;100809.59;2047674;29;20469;-59
2021/06/09 04:18:54;;;;;;;;;;;;;;;17.81;99.17;100817.34;2048135;29;20484;-59
2021/06/09 04:19:59;;;;;;;21.30;17.98;;;;;;;17.81;99.03;100812.06;2047301;29;19938;-59
2021/06/09 04:21:01;;;;;;;21.15;19.02;;;;;;;17.70;99.50;100805.56;2047418;29;20093;-59
2021/06/09 04:22:04;;;;;;;20.15;18.15;;;;;;;17.65;99.55;100806.72;2047030;29;20031;-60
2021/06/09 04:23:08;;;;;;;20.40;18.40;;;;;;;17.84;98.87;100804.00;2047000;29;20492;-59
2021/06/09 04:24:10;;;;;;;20.52;18.42;;;;;;;17.83;98.57;100811.06;2046997;29;20494;-59
2021/06/09 04:25:11;;;;;;;20.90;18.73;;;;;;;17.84;98.35;100811.91;2039452;29;20036;-59
2021/06/09 04:26:15;;;;;;;20.40;18.30;;;;;;;17.78;98.79;100813.09;2039405;29;20078;-59
2021/06/09 04:27:38;;;;;;;21.65;19.10;;;;;;;17.76;98.64;100809.66;2039348;29;20456;-59
2021/06/09 04:28:38;;;;;;;21.00;19.00;;;;;;;17.97;97.95;100812.16;2039505;29;20635;-60
2021/06/09 04:29:40;;;;;;;23.67;19.97;;;;;;;18.10;96.93;100817.66;2044993;29;20042;-60
2021/06/09 04:30:40;;;;;;;22.05;18.90;;;;;;;18.20;96.34;100814.47;2039539;29;20359;-59
2021/06/09 04:31:41;;;;;;;21.77;18.47;;;;;;;18.19;96.11;100818.03;2043286;29;20840;-59
2021/06/09 04:32:47;;;;;;;20.37;18.27;;;;;;;18.26;96.07;100812.44;2043816;29;20063;-59
2021/06/09 04:33:54;;;;;;;20.48;18.58;;;;;;;18.39;95.28;100812.63;2040039;29;20074;-59
2021/06/09 04:34:58;;;;;;;22.40;18.95;;;;;;;18.22;95.39;100817.03;2046505;28;20114;-59
2021/06/09 04:35:59;;;;;;;21.50;19.25;;;;;;;18.33;95.34;100813.81;2046974;29;20787;-60
2021/06/09 04:36:59;;;;;;;20.37;18.20;;;;;;;18.43;94.86;100815.03;2043540;29;20567;-59
2021/06/09 04:37:59;;;;;;;20.93;18.37;;;;;;;18.57;94.08;100814.28;2043521;29;20035;-59
2021/06/09 04:39:00;;;;;;;20.03;18.03;;;;;;;18.61;93.50;100820.28;2045429;29;20035;-60
2021/06/09 04:40:00;;;;;;;20.77;18.67;;;;;;;18.70;93.11;100822.41;2044830;29;20373;-59
2021/06/09 04:41:00;;;;;;;20.20;18.10;;;;;;;18.57;93.31;100818.72;2038791;29;20032;-59
2021/06/09 04:42:01;;;;;;;22.63;18.40;;;;;;;18.69;92.28;100817.19;2040953;29;20028;-59
2021/06/09 04:43:01;;;;;;;19.40;17.47;;;;;;;18.55;93.90;100826.72;2046252;28;20027;-59
2021/06/09 04:44:01;;;;;;;19.73;17.77;;;;;;;18.89;92.21;100826.69;2046631;28;20627;-59
2021/06/09 04:45:02;;;;;;;23.40;17.90;;;;;;;19.05;91.27;100816.16;2047149;29;20043;-59
2021/06/09 04:46:03;;;;;;;19.27;17.30;;;;;;;19.24;89.87;100818.59;2047321;29;20050;-60
2021/06/09 04:47:04;;;;;;;19.42;17.27;;;;;;;19.37;89.20;100822.25;2047404;29;20039;-59
2021/06/09 04:48:12;;;;;;;19.90;17.55;;;;;;;19.54;88.53;100820.41;2047414;29;20135;-59
2021/06/09 04:49:13;;;;;;;18.85;16.92;;;;;;;19.64;87.73;100828.66;2047433;29;20035;-59